Aviation Digital Data Service (ADDS)

Output produced by METARs form (1947 UTC 07 July 2015)
found at http://www.aviationweather.gov/adds/metars/
 
KROW 071935Z 06009KT 9SM BKN021 BKN028 OVC036 23/16 A3012 RMK AO2 T02330161
KROW 071851Z 02011KT 8SM OVC032 23/17 A3014 RMK AO2 RAB1754E06 SLP146 P0000 T02280172
KROW 071837Z 03009KT 9SM OVC030 22/17 A3014 RMK AO2 RAB1754E06 P0000 T02220172
KROW 071751Z 01011KT 10SM SCT020 BKN025 OVC033 22/17 A3015 RMK AO2 SLP151 60000 T02170167 10233 20194 55002
KROW 071703Z 04008KT 10SM OVC031 23/17 A3014 RMK AO2 T02330167
KROW 071651Z 03012KT 10SM FEW017 OVC028 23/17 A3014 RMK AO2 SLP147 T02280167
KROW 071551Z 02009KT 10SM FEW013 OVC023 21/17 A3014 RMK AO2 SLP150 T02110172
KROW 071451Z 01008KT 10SM OVC020 21/17 A3015 RMK AO2 SLP153 60000 T02060172 51014
KROW 071351Z 35008KT 10SM OVC022 20/17 A3015 RMK AO2 RAE02 SLP153 P0000 T02000172
KROW 071251Z 35007KT 10SM -RA OVC021 20/17 A3013 RMK AO2 SLP145 P0000 T02000172
KROW 071203Z 35010KT 10SM -RA BKN019 BKN120 19/18 A3011 RMK AO2 P0000 T01940178
KROW 071151Z AUTO 36010KT 10SM -RA FEW021 SCT120 19/17 A3011 RMK AO2 RAB35 SLP124 P0000 60003 70003 T01940172 10222 20194 51005 TSNO
KROW 071120Z AUTO 02011KT 10SM SCT019 SCT110 19/17 A3008 RMK AO2 T01940172 TSNO
KROW 071051Z AUTO 01011KT 10SM FEW013 OVC019 20/17 A3010 RMK AO2 SLP122 T02000172 TSNO
KROW 070951Z AUTO 36009KT 10SM OVC019 20/18 A3010 RMK AO2 SLP124 T02000178 TSNO
KROW 070851Z AUTO 36012KT 10SM BKN017 OVC027 20/18 A3009 RMK AO2 RAE26 SLP121 P0001 60003 T02000183 58004 TSNO
KROW 070836Z AUTO 01012KT 10SM OVC015 20/18 A3010 RMK AO2 RAE26 P0001 T02000183 TSNO
KROW 070820Z AUTO 02012KT 10SM -RA BKN014 BKN026 OVC110 20/18 A3010 RMK AO2 P0001 T02000183 TSNO
KROW 070751Z AUTO 03013KT 10SM -RA FEW016 SCT022 BKN028 20/18 A3008 RMK AO2 RAB02 SLP117 P0002 T02000183 TSNO
KROW 070651Z AUTO 01012KT 10SM OVC018 22/17 A3011 RMK AO2 SLP124 T02220172 403670200 TSNO
KROW 070551Z AUTO 01013KT 10SM FEW017 OVC027 22/18 A3010 RMK AO2 SLP122 60000 T02220178 10356 20217 51031 TSNO
KROW 070451Z AUTO 34008KT 10SM OVC024 22/18 A3010 RMK AO2 RAB21E43 SLP123 P0000 T02220183 TSNO
KROW 070420Z AUTO 31008KT 10SM BKN024 BKN029 OVC110 22/18 A3010 RMK AO2 T02220183 TSNO
KROW 070351Z AUTO 01008KT 10SM FEW020 BKN110 23/18 A3007 RMK AO2 PK WND 04029/0307 PRESRR SLP111 T02330178 TSNO
KROW 070251Z AUTO 03023G31KT 10SM FEW018 BKN110 23/18 A3000 RMK AO2 PK WND 02034/0200 SLP090 T02330183 51031 TSNO
KROW 070151Z 02023G33KT 10SM CLR 24/18 A2997 RMK AO2 PK WND 02034/0110 SLP083 T02390183
KROW 070051Z 01020G36KT 10SM FEW100 SCT120 25/18 A2993 RMK AO2 PK WND 35042/0018 SLP072 T02500178
KROW 062351Z 33006KT 10SM CLR 36/13 A2990 RMK AO2 SLP051 T03560133 10367 20300 56014
KROW 062251Z 29006KT 10SM CLR 35/14 A2990 RMK AO2 SLP052 T03500139
KROW 062151Z 24008KT 10SM FEW038 FEW049 33/16 A2992 RMK AO2 WSHFT 2053 SLP058 T03280156
KROW 062113Z 24013KT 10SM BKN080 31/16 A2994 RMK AO2 WSHFT 2053 T03060156
KROW 062051Z 20007KT 10SM BKN080 33/13 A2994 RMK AO2 SLP065 T03330133 56014
KROW 061951Z VRB05KT 10SM OVC090 34/13 A2995 RMK AO2 SLP067 T03440133
KROW 071740Z 0718/0818 05008KT P6SM OVC030 
     FM072000 08008KT P6SM SCT030 BKN050 
     FM072300 10008KT P6SM VCTS SCT050CB 
     FM080300 12007KT P6SM SCT040 SCT100 
     FM080600 15007KT P6SM SCT030 BKN050